Time;durP1;ratioP1;P1;durP2;ratioP2;P2;SDS_P1;SDS_P2;PMS_P1;PMS_P2;Temp;Humidity;BMP_temperature;BMP_pressure;BME280_temperature;BME280_humidity;BME280_pressure;Samples;Min_cycle;Max_cycle;Signal;HPM_P1;HPM_P2
2021/06/25 00:00:37;;;;;;;40.17;24.35;;;;;;;;;;5055672;28;20013;-86
2021/06/25 00:03:03;;;;;;;42.95;25.23;;;;;;;;;;5087613;28;20021;-85
2021/06/25 00:05:28;;;;;;;40.28;22.42;;;;;;;;;;5054174;28;20013;-85
2021/06/25 00:07:54;;;;;;;38.25;21.83;;;;;;;;;;5087818;28;20017;-86
2021/06/25 00:10:19;;;;;;;31.95;20.45;;;;;;;;;;5087734;28;20024;-85
2021/06/25 00:12:44;;;;;;;40.15;21.77;;;;;;;;;;5087949;28;20049;-86
2021/06/25 00:15:10;;;;;;;30.40;19.08;;;;;;;;;;5055301;28;20473;-86
2021/06/25 00:17:35;;;;;;;29.38;19.63;;;;;;;;;;5087763;28;20028;-85
2021/06/25 00:20:00;;;;;;;35.13;19.77;;;;;;;;;;5087535;28;20063;-85
2021/06/25 00:22:26;;;;;;;28.77;19.23;;;;;;;;;;5055194;28;21590;-85
2021/06/25 00:24:51;;;;;;;45.67;19.98;;;;;;;;;;5086398;28;20108;-86
2021/06/25 00:27:16;;;;;;;31.73;19.90;;;;;;;;;;5086619;28;20029;-85
2021/06/25 00:29:41;;;;;;;31.80;19.48;;;;;;;;;;5086310;28;20441;-85
2021/06/25 00:32:07;;;;;;;27.55;19.13;;;;;;;;;;5053694;28;20032;-85
2021/06/25 00:34:32;;;;;;;36.10;21.23;;;;;;;;;;5087292;28;20036;-85
2021/06/25 00:36:58;;;;;;;32.60;17.40;;;;;;;;;;5087233;28;20452;-85
2021/06/25 00:39:23;;;;;;;30.48;19.17;;;;;;;;;;5053290;28;20404;-85
2021/06/25 00:41:48;;;;;;;34.20;18.73;;;;;;;;;;5053438;28;20032;-85
2021/06/25 00:44:15;;;;;;;30.42;20.35;;;;;;;;;;5054625;28;20028;-84
2021/06/25 00:46:40;;;;;;;29.02;18.20;;;;;;;;;;5086988;28;20021;-85
2021/06/25 00:49:05;;;;;;;29.30;18.55;;;;;;;;;;5053586;28;20027;-85
2021/06/25 00:51:31;;;;;;;31.20;17.58;;;;;;;;;;5086986;28;20372;-85
2021/06/25 00:53:57;;;;;;;29.58;16.83;;;;;;;;;;5053444;28;20453;-85
2021/06/25 00:56:22;;;;;;;30.80;19.17;;;;;;;;;;5086834;28;20049;-85
2021/06/25 00:58:49;;;;;;;31.13;17.67;;;;;;;;;;5053403;28;20108;-85
2021/06/25 01:01:14;;;;;;;22.63;15.63;;;;;;;;;;5086483;28;20033;-85
2021/06/25 01:03:41;;;;;;;30.25;17.45;;;;;;;;;;5086890;28;20467;-85
2021/06/25 01:06:06;;;;;;;21.42;13.80;;;;;;;;;;5086898;28;20051;-85
2021/06/25 01:08:31;;;;;;;26.10;16.33;;;;;;;;;;5086502;28;20033;-85
2021/06/25 01:10:57;;;;;;;26.88;17.30;;;;;;;;;;5086647;28;20017;-84
2021/06/25 01:13:22;;;;;;;28.73;18.45;;;;;;;;;;5086575;28;20059;-85
2021/06/25 01:15:48;;;;;;;33.60;20.35;;;;;;;;;;5053127;28;20028;-85
2021/06/25 01:18:13;;;;;;;37.83;21.85;;;;;;;;;;5054241;28;20123;-85
2021/06/25 01:20:38;;;;;;;38.58;24.30;;;;;;;;;;5053979;28;20025;-85
2021/06/25 01:23:04;;;;;;;35.72;22.63;;;;;;;;;;5085772;28;20041;-85
2021/06/25 01:25:31;;;;;;;34.38;21.80;;;;;;;;;;5085859;28;20388;-85
2021/06/25 01:27:58;;;;;;;42.00;21.30;;;;;;;;;;5049650;28;20016;-85
2021/06/25 01:30:25;;;;;;;30.70;19.08;;;;;;;;;;5052781;28;20115;-85
2021/06/25 01:32:51;;;;;;;33.00;17.98;;;;;;;;;;5086022;28;20400;-85
2021/06/25 01:35:16;;;;;;;29.80;18.15;;;;;;;;;;5086325;28;20033;-85
2021/06/25 01:37:42;;;;;;;32.22;19.20;;;;;;;;;;5052425;28;20032;-85
2021/06/25 01:40:08;;;;;;;30.17;20.08;;;;;;;;;;5086101;28;20025;-85
2021/06/25 01:42:35;;;;;;;38.78;22.63;;;;;;;;;;5085900;28;20472;-85
2021/06/25 01:45:02;;;;;;;31.65;19.50;;;;;;;;;;5085903;28;20075;-85
2021/06/25 01:47:27;;;;;;;38.65;21.67;;;;;;;;;;5086132;28;20104;-85
2021/06/25 01:49:52;;;;;;;32.00;19.50;;;;;;;;;;5085596;28;20063;-86
2021/06/25 01:52:18;;;;;;;32.38;19.40;;;;;;;;;;5052111;28;20031;-85
2021/06/25 01:54:44;;;;;;;33.90;19.83;;;;;;;;;;5053372;28;20024;-85
2021/06/25 01:57:09;;;;;;;35.30;21.85;;;;;;;;;;5053364;28;20031;-85
2021/06/25 01:59:34;;;;;;;37.58;22.38;;;;;;;;;;5085055;28;20094;-85
2021/06/25 02:01:59;;;;;;;36.63;21.70;;;;;;;;;;5085593;28;20044;-85
2021/06/25 02:04:24;;;;;;;39.15;20.83;;;;;;;;;;5052046;28;20027;-85
2021/06/25 02:06:50;;;;;;;38.67;21.02;;;;;;;;;;5085482;28;20017;-85
2021/06/25 02:09:15;;;;;;;32.67;19.63;;;;;;;;;;5085665;28;20029;-85
2021/06/25 02:11:40;;;;;;;31.08;19.17;;;;;;;;;;5085543;28;20043;-86
2021/06/25 02:14:05;;;;;;;36.42;21.42;;;;;;;;;;5085837;28;20387;-85
2021/06/25 02:16:30;;;;;;;39.53;23.08;;;;;;;;;;5085197;28;20070;-86
2021/06/25 02:18:56;;;;;;;38.22;22.52;;;;;;;;;;5051888;28;20021;-85
2021/06/25 02:21:21;;;;;;;44.85;23.33;;;;;;;;;;5085435;28;20053;-86
2021/06/25 02:23:46;;;;;;;40.15;22.77;;;;;;;;;;5051661;28;20033;-85
2021/06/25 02:26:11;;;;;;;47.60;22.70;;;;;;;;;;5052140;28;20017;-86
2021/06/25 02:28:36;;;;;;;41.80;24.90;;;;;;;;;;5085501;28;20017;-85
2021/06/25 02:31:02;;;;;;;42.15;23.95;;;;;;;;;;5085241;28;20017;-85
2021/06/25 02:33:27;;;;;;;44.42;24.73;;;;;;;;;;5085508;28;20023;-85
2021/06/25 02:35:52;;;;;;;43.20;23.85;;;;;;;;;;5051665;28;20025;-85
2021/06/25 02:38:17;;;;;;;49.63;22.60;;;;;;;;;;5085213;28;20029;-85
2021/06/25 02:40:43;;;;;;;41.47;24.08;;;;;;;;;;5085292;28;20449;-85
2021/06/25 02:43:08;;;;;;;45.10;25.02;;;;;;;;;;5051531;28;20388;-85
2021/06/25 02:45:33;;;;;;;39.65;22.90;;;;;;;;;;5084907;28;20037;-85
2021/06/25 02:47:59;;;;;;;45.03;24.13;;;;;;;;;;5084887;28;20108;-85
2021/06/25 02:50:24;;;;;;;51.75;23.67;;;;;;;;;;5083662;28;20380;-85
2021/06/25 02:52:50;;;;;;;43.90;23.92;;;;;;;;;;5084870;28;20032;-85
2021/06/25 02:55:15;;;;;;;51.00;28.25;;;;;;;;;;5084939;28;20021;-85
2021/06/25 02:57:41;;;;;;;55.03;31.17;;;;;;;;;;5085158;28;20024;-85
2021/06/25 03:00:10;;;;;;;58.92;29.70;;;;;;;;;;5084951;28;20021;-86
2021/06/25 03:02:36;;;;;;;59.60;34.10;;;;;;;;;;5084919;28;20029;-85
2021/06/25 03:05:01;;;;;;;52.42;28.05;;;;;;;;;;5051523;28;20029;-85
2021/06/25 03:07:26;;;;;;;48.03;27.27;;;;;;;;;;5084858;28;20112;-85
2021/06/25 03:09:51;;;;;;;42.40;25.05;;;;;;;;;;5085127;28;20044;-85
2021/06/25 03:12:17;;;;;;;55.80;28.95;;;;;;;;;;5056176;28;20037;-85
2021/06/25 03:14:42;;;;;;;47.08;25.80;;;;;;;;;;5088333;28;20051;-85
2021/06/25 03:17:09;;;;;;;52.22;26.40;;;;;;;;;;5089123;28;20108;-85
2021/06/25 03:19:34;;;;;;;57.28;26.65;;;;;;;;;;5088805;28;20017;-85
2021/06/25 03:21:59;;;;;;;50.40;29.40;;;;;;;;;;5088941;28;20480;-85
2021/06/25 03:24:24;;;;;;;50.65;29.40;;;;;;;;;;5088702;28;20031;-85
2021/06/25 03:26:50;;;;;;;57.22;28.08;;;;;;;;;;5056575;28;20017;-85
2021/06/25 03:29:15;;;;;;;52.08;28.98;;;;;;;;;;5088779;28;20111;-85
2021/06/25 03:31:40;;;;;;;56.55;30.50;;;;;;;;;;5088681;28;20048;-86
2021/06/25 03:34:05;;;;;;;55.85;30.77;;;;;;;;;;5056482;28;20048;-85
2021/06/25 03:36:30;;;;;;;52.08;29.85;;;;;;;;;;5088533;28;20063;-85
2021/06/25 03:38:56;;;;;;;52.70;30.67;;;;;;;;;;5088930;28;20028;-85
2021/06/25 03:41:21;;;;;;;59.63;32.15;;;;;;;;;;5087680;28;20025;-85
2021/06/25 03:43:46;;;;;;;59.13;31.25;;;;;;;;;;5088340;28;20021;-86
2021/06/25 03:46:11;;;;;;;43.83;26.90;;;;;;;;;;5088644;28;20024;-85
2021/06/25 03:48:37;;;;;;;47.25;27.08;;;;;;;;;;5088412;28;20040;-85
2021/06/25 03:51:02;;;;;;;54.75;30.73;;;;;;;;;;5088487;28;20111;-85
2021/06/25 03:53:27;;;;;;;50.03;28.08;;;;;;;;;;5088263;28;20434;-85
2021/06/25 03:56:11;;;;;;;41.95;26.40;;;;;;;;;;5088414;28;20009;-85
2021/06/25 03:58:37;;;;;;;53.03;29.05;;;;;;;;;;5054509;28;20044;-86
2021/06/25 04:01:03;;;;;;;47.92;25.88;;;;;;;;;;5088293;28;20428;-85
2021/06/25 04:03:28;;;;;;;42.90;25.33;;;;;;;;;;5088054;28;20112;-85
2021/06/25 04:05:53;;;;;;;47.17;26.88;;;;;;;;;;5087717;28;20041;-85
2021/06/25 04:08:18;;;;;;;48.78;25.20;;;;;;;;;;5054620;28;20108;-86
2021/06/25 04:10:44;;;;;;;44.10;26.38;;;;;;;;;;5054462;28;20009;-86
2021/06/25 04:13:09;;;;;;;48.15;27.55;;;;;;;;;;5088156;28;20405;-86
2021/06/25 04:15:34;;;;;;;51.80;28.95;;;;;;;;;;5087950;28;20051;-86
2021/06/25 04:18:00;;;;;;;47.60;27.85;;;;;;;;;;5088075;28;20095;-86
2021/06/25 04:20:25;;;;;;;48.20;27.73;;;;;;;;;;5088228;28;20028;-85
2021/06/25 04:22:50;;;;;;;49.78;27.85;;;;;;;;;;5087010;28;20013;-85
2021/06/25 04:25:15;;;;;;;55.20;27.98;;;;;;;;;;5087701;28;20028;-85
2021/06/25 04:27:41;;;;;;;45.15;26.35;;;;;;;;;;5087577;28;20012;-85
2021/06/25 04:30:09;;;;;;;46.03;25.80;;;;;;;;;;5087579;28;20074;-85
2021/06/25 04:32:34;;;;;;;42.95;23.38;;;;;;;;;;5087440;28;20025;-86
2021/06/25 04:35:00;;;;;;;47.22;25.42;;;;;;;;;;5086859;28;20025;-85
2021/06/25 04:37:25;;;;;;;50.22;25.42;;;;;;;;;;5055236;28;20024;-85
2021/06/25 04:39:50;;;;;;;47.75;23.48;;;;;;;;;;5087356;28;20456;-86
2021/06/25 04:42:15;;;;;;;43.53;25.88;;;;;;;;;;5087554;28;20029;-86
2021/06/25 04:44:40;;;;;;;48.28;26.38;;;;;;;;;;5054683;28;20033;-86
2021/06/25 04:47:06;;;;;;;42.53;25.52;;;;;;;;;;5053918;28;20025;-86
2021/06/25 04:49:33;;;;;;;43.30;26.52;;;;;;;;;;5054878;28;20017;-85
2021/06/25 04:51:58;;;;;;;44.92;26.30;;;;;;;;;;5087225;28;20453;-86
2021/06/25 04:54:23;;;;;;;44.63;25.77;;;;;;;;;;5087212;28;20040;-86
2021/06/25 04:56:48;;;;;;;40.85;24.48;;;;;;;;;;5087046;28;20032;-86
2021/06/25 04:59:14;;;;;;;42.65;23.38;;;;;;;;;;5087084;28;20024;-86
2021/06/25 05:01:40;;;;;;;41.58;24.77;;;;;;;;;;5084238;28;20465;-86
2021/06/25 05:04:05;;;;;;;44.72;24.13;;;;;;;;;;5052968;28;20109;-85
2021/06/25 05:06:30;;;;;;;39.53;23.52;;;;;;;;;;5086937;28;20021;-86
2021/06/25 05:08:55;;;;;;;40.85;24.17;;;;;;;;;;5086726;28;20067;-85
2021/06/25 05:11:20;;;;;;;38.42;23.15;;;;;;;;;;5086927;28;20063;-85
2021/06/25 05:13:46;;;;;;;43.40;24.85;;;;;;;;;;5053168;28;20438;-85
2021/06/25 05:16:11;;;;;;;45.13;24.27;;;;;;;;;;5086779;28;20024;-85
2021/06/25 05:18:36;;;;;;;35.53;22.55;;;;;;;;;;5086662;28;20029;-86
2021/06/25 05:21:01;;;;;;;36.80;21.60;;;;;;;;;;5086422;28;20036;-85
2021/06/25 05:23:27;;;;;;;39.58;21.95;;;;;;;;;;5086437;28;20029;-86
2021/06/25 05:25:53;;;;;;;35.97;21.55;;;;;;;;;;5054049;28;20062;-86
2021/06/25 05:28:18;;;;;;;43.67;22.85;;;;;;;;;;5086445;28;20384;-85
2021/06/25 05:30:43;;;;;;;35.95;22.40;;;;;;;;;;5073263;28;20017;-85
2021/06/25 05:33:09;;;;;;;41.92;21.05;;;;;;;;;;5085496;28;20017;-85
2021/06/25 05:35:34;;;;;;;36.80;21.42;;;;;;;;;;5082241;28;20020;-85
2021/06/25 05:38:01;;;;;;;37.97;21.27;;;;;;;;;;5052795;28;20104;-86
2021/06/25 05:40:26;;;;;;;48.55;22.92;;;;;;;;;;5052722;28;20524;-86
2021/06/25 05:42:51;;;;;;;36.25;20.65;;;;;;;;;;5053584;28;20025;-85
2021/06/25 05:45:17;;;;;;;39.80;21.88;;;;;;;;;;5085963;28;20044;-85
2021/06/25 05:47:42;;;;;;;49.88;21.65;;;;;;;;;;5052291;28;20376;-84
2021/06/25 05:50:07;;;;;;;35.40;20.75;;;;;;;;;;5052437;28;20058;-84
2021/06/25 05:52:33;;;;;;;38.42;22.05;;;;;;;;;;5085612;28;20028;-84
2021/06/25 05:54:58;;;;;;;36.53;21.77;;;;;;;;;;5052067;28;20023;-84
2021/06/25 05:57:24;;;;;;;35.70;20.90;;;;;;;;;;5085726;28;20025;-85
2021/06/25 05:59:49;;;;;;;36.30;20.80;;;;;;;;;;5050902;28;20480;-84
2021/06/25 06:02:14;;;;;;;32.65;19.65;;;;;;;;;;5060591;28;20033;-85
2021/06/25 06:04:39;;;;;;;33.80;20.40;;;;;;;;;;5051820;28;20029;-85
2021/06/25 06:07:06;;;;;;;30.45;18.35;;;;;;;;;;5085363;28;20400;-84
2021/06/25 06:09:32;;;;;;;36.33;19.33;;;;;;;;;;5085460;28;20017;-84
2021/06/25 06:11:57;;;;;;;35.90;20.25;;;;;;;;;;5080689;28;20020;-84
2021/06/25 06:14:22;;;;;;;33.03;19.30;;;;;;;;;;5050881;28;20028;-85
2021/06/25 06:16:48;;;;;;;34.03;20.55;;;;;;;;;;5051370;28;20487;-85
2021/06/25 06:19:16;;;;;;;32.45;18.10;;;;;;;;;;5048837;28;20043;-84
2021/06/25 06:32:45;;;;;;;32.88;18.92;;;;;;;;;;5051857;28;20078;-84
2021/06/25 06:35:10;;;;;;;34.35;18.90;;;;;;;;;;5050860;28;20499;-84
2021/06/25 06:37:36;;;;;;;34.70;19.35;;;;;;;;;;5078919;28;20045;-84
2021/06/25 06:40:01;;;;;;;32.00;18.85;;;;;;;;;;5085135;28;20120;-84
2021/06/25 06:42:26;;;;;;;34.63;19.92;;;;;;;;;;5083672;28;20475;-84
2021/06/25 06:44:51;;;;;;;31.95;17.95;;;;;;;;;;5051008;28;20044;-84
2021/06/25 06:47:17;;;;;;;31.83;17.95;;;;;;;;;;5084429;28;20491;-84
2021/06/25 06:49:42;;;;;;;33.60;17.83;;;;;;;;;;5080364;28;20044;-84
2021/06/25 06:52:07;;;;;;;25.95;15.65;;;;;;;;;;5085039;28;20070;-84
2021/06/25 06:54:32;;;;;;;33.58;16.65;;;;;;;;;;5051492;28;20396;-84
2021/06/25 06:56:58;;;;;;;31.13;16.38;;;;;;;;;;5084901;28;20017;-84
2021/06/25 06:59:23;;;;;;;27.35;14.88;;;;;;;;;;5084535;28;20032;-85
2021/06/25 07:01:48;;;;;;;24.75;15.13;;;;;;;;;;5051047;28;20016;-84
2021/06/25 07:04:13;;;;;;;30.35;14.45;;;;;;;;;;5084311;28;20036;-84
2021/06/25 07:06:38;;;;;;;27.52;15.02;;;;;;;;;;5051245;28;20025;-84
2021/06/25 07:09:04;;;;;;;23.92;13.95;;;;;;;;;;5083780;28;20371;-84
2021/06/25 07:11:29;;;;;;;30.65;15.00;;;;;;;;;;5084717;28;20021;-84
2021/06/25 07:13:54;;;;;;;25.63;14.60;;;;;;;;;;5050843;28;20025;-83
2021/06/25 07:16:19;;;;;;;24.75;13.00;;;;;;;;;;5052268;28;20017;-83
2021/06/25 07:18:44;;;;;;;22.98;14.05;;;;;;;;;;5084264;28;20024;-83
2021/06/25 07:21:10;;;;;;;20.63;13.38;;;;;;;;;;5047707;28;20053;-83
2021/06/25 07:23:35;;;;;;;24.00;12.13;;;;;;;;;;5030857;28;20025;-83
2021/06/25 07:26:00;;;;;;;22.10;11.93;;;;;;;;;;5048155;28;20013;-84
2021/06/25 07:28:25;;;;;;;21.52;12.15;;;;;;;;;;5077141;28;20025;-83
2021/06/25 07:30:51;;;;;;;21.77;11.73;;;;;;;;;;5049075;28;20412;-83
2021/06/25 07:33:16;;;;;;;25.80;12.05;;;;;;;;;;5084352;28;20005;-83
2021/06/25 07:35:42;;;;;;;16.75;10.48;;;;;;;;;;5084243;28;20464;-83
2021/06/25 07:38:07;;;;;;;19.17;10.98;;;;;;;;;;5084194;28;20472;-84
2021/06/25 07:40:33;;;;;;;16.48;11.63;;;;;;;;;;5077514;28;20021;-83
2021/06/25 07:42:58;;;;;;;19.70;11.57;;;;;;;;;;5047662;28;20009;-82
2021/06/25 07:45:23;;;;;;;23.23;12.07;;;;;;;;;;5083995;28;20472;-83
2021/06/25 07:47:48;;;;;;;17.58;9.82;;;;;;;;;;5083887;28;20524;-83
2021/06/25 07:50:15;;;;;;;17.90;10.07;;;;;;;;;;5050453;28;20044;-83
2021/06/25 07:52:40;;;;;;;16.38;10.77;;;;;;;;;;5083881;28;20031;-83
2021/06/25 07:55:06;;;;;;;22.70;10.10;;;;;;;;;;5052105;28;20440;-83
2021/06/25 07:57:31;;;;;;;18.95;9.85;;;;;;;;;;5052696;28;20380;-83
2021/06/25 07:59:56;;;;;;;17.88;10.02;;;;;;;;;;5053826;28;20047;-83
2021/06/25 08:02:21;;;;;;;20.23;10.43;;;;;;;;;;5053853;28;20028;-83
2021/06/25 08:04:47;;;;;;;15.05;9.43;;;;;;;;;;5087569;28;20059;-83
2021/06/25 08:07:15;;;;;;;13.95;8.40;;;;;;;;;;5054943;28;20784;-83
2021/06/25 08:09:41;;;;;;;16.42;9.07;;;;;;;;;;5053946;28;20519;-83
2021/06/25 08:12:08;;;;;;;20.52;9.88;;;;;;;;;;5053477;28;20013;-83
2021/06/25 08:14:33;;;;;;;17.50;9.05;;;;;;;;;;5053434;28;20472;-83
2021/06/25 08:16:58;;;;;;;16.70;9.43;;;;;;;;;;5053653;28;20032;-83
2021/06/25 08:19:23;;;;;;;16.13;9.00;;;;;;;;;;5053492;28;20017;-83
2021/06/25 08:21:48;;;;;;;17.80;9.05;;;;;;;;;;5053747;28;20020;-83
2021/06/25 08:24:14;;;;;;;20.10;8.90;;;;;;;;;;5053251;28;20028;-83
2021/06/25 08:26:39;;;;;;;15.50;9.38;;;;;;;;;;5053402;28;20031;-83
2021/06/25 08:29:04;;;;;;;17.70;9.55;;;;;;;;;;5054591;28;20028;-83
2021/06/25 08:31:29;;;;;;;16.92;9.23;;;;;;;;;;5053613;28;20361;-83
2021/06/25 08:33:55;;;;;;;14.38;8.65;;;;;;;;;;5052946;28;20071;-84
2021/06/25 08:36:20;;;;;;;17.77;9.18;;;;;;;;;;5053048;28;20028;-83
2021/06/25 08:38:45;;;;;;;17.38;8.48;;;;;;;;;;5053164;28;20025;-83
2021/06/25 08:41:10;;;;;;;14.50;8.85;;;;;;;;;;5053049;28;20075;-83
2021/06/25 08:43:35;;;;;;;16.45;9.30;;;;;;;;;;5053211;28;20459;-84
2021/06/25 08:46:01;;;;;;;13.80;8.55;;;;;;;;;;5053140;28;20523;-82
2021/06/25 08:48:26;;;;;;;17.83;8.35;;;;;;;;;;5053283;28;20364;-83
2021/06/25 08:50:54;;;;;;;19.45;7.57;;;;;;;;;;5053177;28;20461;-83
2021/06/25 08:53:19;;;;;;;14.93;7.78;;;;;;;;;;5052682;28;20016;-83
2021/06/25 08:55:44;;;;;;;13.55;7.55;;;;;;;;;;5053044;28;20116;-83
2021/06/25 08:58:14;;;;;;;13.43;7.15;;;;;;;;;;5052596;28;20017;-83
2021/06/25 09:00:39;;;;;;;14.43;7.90;;;;;;;;;;5052979;28;20046;-83
2021/06/25 09:03:04;;;;;;;14.23;7.25;;;;;;;;;;5052996;28;20445;-83
2021/06/25 09:05:29;;;;;;;14.82;6.68;;;;;;;;;;5052594;28;20377;-83
2021/06/25 09:07:56;;;;;;;11.30;7.47;;;;;;;;;;5052754;28;20024;-83
2021/06/25 09:10:32;;;;;;;15.35;7.40;;;;;;;;;;5052656;28;20123;-83
2021/06/25 09:13:01;;;;;;;9.80;6.80;;;;;;;;;;5052276;28;20025;-83
2021/06/25 09:15:29;;;;;;;10.13;6.75;;;;;;;;;;5052534;28;20417;-83
2021/06/25 09:17:59;;;;;;;9.98;6.25;;;;;;;;;;5052788;28;20131;-83
2021/06/25 09:20:32;;;;;;;13.23;6.53;;;;;;;;;;5052434;28;20380;-83
2021/06/25 09:22:57;;;;;;;16.95;7.85;;;;;;;;;;5052400;28;20017;-83
2021/06/25 09:25:22;;;;;;;10.88;6.10;;;;;;;;;;5052425;28;20036;-83
2021/06/25 09:27:58;;;;;;;16.25;7.60;;;;;;;;;;5053498;28;20017;-83
2021/06/25 09:30:25;;;;;;;14.38;7.60;;;;;;;;;;5053741;28;20378;-84
2021/06/25 09:32:51;;;;;;;19.30;7.50;;;;;;;;;;5052157;28;20439;-83
2021/06/25 09:35:18;;;;;;;14.63;7.93;;;;;;;;;;5052102;28;20127;-83
2021/06/25 09:37:45;;;;;;;15.68;8.15;;;;;;;;;;5051315;28;20025;-84
2021/06/25 09:40:13;;;;;;;14.07;9.02;;;;;;;;;;5051845;28;20427;-83
2021/06/25 09:42:39;;;;;;;17.35;8.50;;;;;;;;;;5052053;28;20025;-83
2021/06/25 09:45:08;;;;;;;13.00;8.20;;;;;;;;;;5051806;28;20120;-83
2021/06/25 09:47:34;;;;;;;14.63;8.18;;;;;;;;;;5051957;28;20029;-83
2021/06/25 09:50:03;;;;;;;14.63;7.97;;;;;;;;;;5051922;28;20018;-83
2021/06/25 09:52:44;;;;;;;12.13;7.80;;;;;;;;;;5051934;28;20040;-83
2021/06/25 09:55:10;;;;;;;15.03;8.30;;;;;;;;;;5051697;28;20021;-83
2021/06/25 09:57:55;;;;;;;17.08;7.82;;;;;;;;;;5051894;28;20040;-83
2021/06/25 10:01:21;;;;;;;14.35;8.57;;;;;;;;;;5052962;28;20039;-83
2021/06/25 10:03:12;;;;;;;15.82;7.65;;;;;;;;;;5052264;28;20052;-84
2021/06/25 10:05:37;;;;;;;10.15;7.50;;;;;;;;;;5051397;28;20021;-83
2021/06/25 10:08:03;;;;;;;10.77;7.00;;;;;;;;;;5051637;28;20021;-83
2021/06/25 10:10:28;;;;;;;12.93;7.45;;;;;;;;;;5051320;28;20017;-83
2021/06/25 10:12:54;;;;;;;16.90;7.05;;;;;;;;;;5051746;28;20112;-84
2021/06/25 10:15:19;;;;;;;13.23;7.03;;;;;;;;;;5052803;28;20492;-83
2021/06/25 10:17:44;;;;;;;16.02;6.95;;;;;;;;;;5051460;28;20265;-83
2021/06/25 10:20:11;;;;;;;12.10;7.20;;;;;;;;;;5051080;28;20333;-83
2021/06/25 10:22:37;;;;;;;11.27;7.25;;;;;;;;;;5051234;28;20020;-83
2021/06/25 10:25:04;;;;;;;13.00;6.90;;;;;;;;;;5051320;28;20025;-83
2021/06/25 10:27:30;;;;;;;16.95;6.63;;;;;;;;;;5051139;28;20021;-83
2021/06/25 10:29:56;;;;;;;14.98;7.07;;;;;;;;;;5051390;28;20027;-83
2021/06/25 10:32:21;;;;;;;12.02;6.90;;;;;;;;;;5051535;28;20429;-83
2021/06/25 10:34:46;;;;;;;12.80;7.32;;;;;;;;;;5051008;28;20108;-84
2021/06/25 10:37:22;;;;;;;14.23;7.35;;;;;;;;;;5051086;28;20017;-83
2021/06/25 10:39:47;;;;;;;14.80;7.93;;;;;;;;;;5050245;28;20028;-83
2021/06/25 10:42:13;;;;;;;12.57;7.53;;;;;;;;;;5051242;28;20032;-83
2021/06/25 10:44:45;;;;;;;11.98;6.60;;;;;;;;;;5050815;28;20489;-83
2021/06/25 10:47:15;;;;;;;13.32;7.80;;;;;;;;;;5051349;28;20440;-83
2021/06/25 10:50:03;;;;;;;13.18;7.93;;;;;;;;;;5051021;28;20025;-84
2021/06/25 10:52:35;;;;;;;13.77;7.25;;;;;;;;;;5051078;28;20379;-84
2021/06/25 10:55:01;;;;;;;;;;;;;;;;;;5052751;28;20088;-83
2021/06/25 10:57:27;;;;;;;12.73;7.00;;;;;;;;;;5050748;28;19935;-83
2021/06/25 10:59:52;;;;;;;13.15;7.85;;;;;;;;;;5050864;28;20104;-83
2021/06/25 11:02:17;;;;;;;9.80;6.43;;;;;;;;;;5050868;28;20013;-84
2021/06/25 11:04:43;;;;;;;11.02;6.85;;;;;;;;;;5050837;28;20029;-83
2021/06/25 11:07:13;;;;;;;10.18;6.97;;;;;;;;;;5051835;28;20410;-84
2021/06/25 11:09:58;;;;;;;14.70;7.35;;;;;;;;;;5050689;28;20033;-83
2021/06/25 11:12:24;;;;;;;13.63;6.88;;;;;;;;;;5050671;28;20208;-83
2021/06/25 11:14:54;;;;;;;14.60;7.03;;;;;;;;;;5050367;28;20115;-84
2021/06/25 11:17:38;;;;;;;9.75;6.55;;;;;;;;;;5050672;28;20025;-83
2021/06/25 11:20:21;;;;;;;17.05;6.68;;;;;;;;;;5050855;28;20032;-83
2021/06/25 11:22:51;;;;;;;15.73;6.10;;;;;;;;;;5050312;28;20028;-83
2021/06/25 11:25:31;;;;;;;16.85;6.80;;;;;;;;;;5052017;28;20101;-83
2021/06/25 11:28:16;;;;;;;15.90;6.90;;;;;;;;;;5050785;28;20020;-83
2021/06/25 11:30:50;;;;;;;10.07;5.47;;;;;;;;;;5050730;28;20056;-83
2021/06/25 11:33:32;;;;;;;11.00;5.32;;;;;;;;;;5054130;28;20092;-83
2021/06/25 11:36:13;;;;;;;12.77;6.90;;;;;;;;;;5054365;28;20644;-83
2021/06/25 11:38:57;;;;;;;10.60;5.72;;;;;;;;;;5054030;28;20394;-84
2021/06/25 11:41:55;;;;;;;12.60;6.25;;;;;;;;;;5053333;28;20357;-83
2021/06/25 11:44:23;;;;;;;15.75;7.57;;;;;;;;;;5039984;28;20025;-83
2021/06/25 11:46:58;;;;;;;10.65;6.93;;;;;;;;;;5053078;28;20025;-83
2021/06/25 11:49:27;;;;;;;13.85;7.47;;;;;;;;;;5047986;28;20029;-82
2021/06/25 11:51:52;;;;;;;11.25;6.80;;;;;;;;;;5053915;28;20013;-83
2021/06/25 11:54:20;;;;;;;13.35;7.78;;;;;;;;;;5053225;28;20020;-84
2021/06/25 11:56:46;;;;;;;10.05;7.18;;;;;;;;;;5053330;28;20039;-84
2021/06/25 11:59:12;;;;;;;10.90;6.72;;;;;;;;;;5046674;28;20022;-84
2021/06/25 12:01:56;;;;;;;17.98;7.85;;;;;;;;;;5046535;28;20021;-84
2021/06/25 12:04:31;;;;;;;16.88;8.18;;;;;;;;;;5040964;28;20029;-84
2021/06/25 12:06:57;;;;;;;13.25;7.20;;;;;;;;;;5053442;28;20017;-84
2021/06/25 12:09:23;;;;;;;11.88;7.07;;;;;;;;;;5053388;28;20394;-84
2021/06/25 12:11:49;;;;;;;13.25;7.50;;;;;;;;;;5053057;28;20472;-84
2021/06/25 12:14:14;;;;;;;15.55;7.88;;;;;;;;;;5053266;28;20074;-82
2021/06/25 12:16:42;;;;;;;12.25;7.65;;;;;;;;;;5053488;28;20029;-82
2021/06/25 12:19:10;;;;;;;14.02;7.65;;;;;;;;;;5053405;28;20025;-83
2021/06/25 12:21:36;;;;;;;11.73;7.90;;;;;;;;;;5052761;28;20111;-83
2021/06/25 12:24:02;;;;;;;14.48;7.35;;;;;;;;;;5052837;28;20108;-83
2021/06/25 12:26:28;;;;;;;14.50;8.02;;;;;;;;;;5053515;28;20084;-83
2021/06/25 12:28:54;;;;;;;15.52;7.13;;;;;;;;;;5053464;28;20048;-83
2021/06/25 12:31:21;;;;;;;15.43;7.78;;;;;;;;;;5053094;28;20051;-82
2021/06/25 12:33:48;;;;;;;12.70;7.97;;;;;;;;;;5053580;28;20021;-83
2021/06/25 12:36:14;;;;;;;13.63;7.78;;;;;;;;;;5052932;28;20375;-83
2021/06/25 12:38:39;;;;;;;11.02;7.10;;;;;;;;;;5053352;28;20041;-83
2021/06/25 12:41:05;;;;;;;11.63;6.88;;;;;;;;;;5053414;28;20029;-83
2021/06/25 12:43:34;;;;;;;17.45;7.95;;;;;;;;;;5052926;28;20379;-83
2021/06/25 12:46:11;;;;;;;13.75;7.78;;;;;;;;;;5053612;28;20100;-83
2021/06/25 12:48:37;;;;;;;17.02;8.77;;;;;;;;;;5053295;28;20028;-83
2021/06/25 12:51:09;;;;;;;13.80;8.20;;;;;;;;;;5053209;28;20009;-83
2021/06/25 12:53:35;;;;;;;11.37;8.50;;;;;;;;;;5046258;28;20370;-83
2021/06/25 12:56:01;;;;;;;13.95;8.70;;;;;;;;;;5053187;28;20027;-83
2021/06/25 12:58:27;;;;;;;17.45;9.00;;;;;;;;;;5052952;28;20021;-83
2021/06/25 13:00:58;;;;;;;16.27;7.93;;;;;;;;;;5052637;28;20013;-83
2021/06/25 13:03:24;;;;;;;14.13;7.95;;;;;;;;;;5050133;28;20369;-83
2021/06/25 13:05:49;;;;;;;14.18;9.02;;;;;;;;;;5051421;28;20017;-83
2021/06/25 13:08:16;;;;;;;12.15;8.05;;;;;;;;;;5053090;28;20017;-82
2021/06/25 13:10:41;;;;;;;15.98;8.60;;;;;;;;;;5051299;28;20017;-83
2021/06/25 13:13:16;;;;;;;12.23;8.48;;;;;;;;;;5052706;28;20357;-83
2021/06/25 13:15:50;;;;;;;12.73;8.63;;;;;;;;;;5049015;28;20057;-84
2021/06/25 13:18:17;;;;;;;11.98;7.65;;;;;;;;;;5068892;28;20439;-83
2021/06/25 13:21:01;;;;;;;13.32;8.52;;;;;;;;;;5057308;28;20012;-83
2021/06/25 13:23:27;;;;;;;15.95;8.93;;;;;;;;;;5053369;28;20029;-83
2021/06/25 13:25:59;;;;;;;15.35;8.13;;;;;;;;;;5034120;28;20029;-83
2021/06/25 13:28:24;;;;;;;13.82;7.82;;;;;;;;;;5036026;28;20538;-83
2021/06/25 13:31:05;;;;;;;16.05;8.48;;;;;;;;;;5053812;28;20017;-83
2021/06/25 13:33:39;;;;;;;10.95;7.45;;;;;;;;;;5052479;28;20112;-83
2021/06/25 13:36:06;;;;;;;16.05;8.23;;;;;;;;;;5051767;28;20089;-83
2021/06/25 13:38:31;;;;;;;17.58;8.65;;;;;;;;;;5052300;28;20024;-83
2021/06/25 13:41:11;;;;;;;15.13;9.60;;;;;;;;;;5052481;28;20066;-83
2021/06/25 13:43:37;;;;;;;14.73;8.18;;;;;;;;;;5052698;28;20013;-84
2021/06/25 13:46:07;;;;;;;14.20;7.70;;;;;;;;;;5052263;28;20017;-83
2021/06/25 13:48:32;;;;;;;15.38;8.82;;;;;;;;;;5052100;28;20009;-84
2021/06/25 13:51:02;;;;;;;16.73;8.23;;;;;;;;;;5052618;28;20155;-83
2021/06/25 13:53:38;;;;;;;15.75;8.93;;;;;;;;;;5083968;28;20362;-84
2021/06/25 13:56:04;;;;;;;13.32;7.45;;;;;;;;;;5052086;28;20044;-83
2021/06/25 13:58:30;;;;;;;12.88;8.07;;;;;;;;;;5045960;28;20052;-85
2021/06/25 14:00:56;;;;;;;12.30;8.18;;;;;;;;;;5051948;28;20056;-84
2021/06/25 14:03:26;;;;;;;18.67;7.72;;;;;;;;;;5051913;28;20020;-84
2021/06/25 14:05:56;;;;;;;13.38;8.50;;;;;;;;;;5050910;28;20025;-85
2021/06/25 14:08:21;;;;;;;12.20;8.27;;;;;;;;;;5051612;28;20377;-85
2021/06/25 14:10:55;;;;;;;15.73;9.23;;;;;;;;;;5050996;28;20023;-84
2021/06/25 14:13:33;;;;;;;18.05;8.80;;;;;;;;;;5051484;28;20495;-85
2021/06/25 14:15:58;;;;;;;16.23;9.65;;;;;;;;;;5046221;28;20028;-84
2021/06/25 14:18:27;;;;;;;16.55;9.60;;;;;;;;;;5039143;28;20017;-84
2021/06/25 14:20:52;;;;;;;20.45;9.40;;;;;;;;;;5048872;28;20043;-84
2021/06/25 14:23:17;;;;;;;17.40;9.60;;;;;;;;;;5051529;28;20024;-84
2021/06/25 14:25:43;;;;;;;15.40;9.73;;;;;;;;;;5051336;28;20033;-84
2021/06/25 14:28:08;;;;;;;14.85;9.25;;;;;;;;;;5052385;28;20382;-84
2021/06/25 14:30:33;;;;;;;16.08;9.20;;;;;;;;;;5051305;28;20043;-85
2021/06/25 14:32:59;;;;;;;18.73;10.00;;;;;;;;;;5044309;28;20083;-84